Time;durP1;ratioP1;P1;durP2;ratioP2;P2;SDS_P1;SDS_P2;PMS_P1;PMS_P2;Temp;Humidity;BMP_temperature;BMP_pressure;BME280_temperature;BME280_humidity;BME280_pressure;Samples;Min_cycle;Max_cycle;Signal;HPM_P1;HPM_P2
2023/10/09 00:00:31;;;;;;;0.40;0.40;;;;;;;7.75;81.15;94864.91;6295433;28;20040;-66
2023/10/09 00:03:22;;;;;;;0.93;0.32;;;;;;;7.67;81.17;94864.72;6295288;28;20503;-67
2023/10/09 00:06:38;;;;;;;0.40;0.40;;;;;;;7.58;82.16;94864.53;6294150;28;20424;-66
2023/10/09 00:09:48;;;;;;;0.95;0.45;;;;;;;7.69;81.32;94870.66;6294945;28;20041;-65
2023/10/09 00:12:55;;;;;;;0.30;0.30;;;;;;;7.63;81.33;94866.78;6277460;28;20044;-66
2023/10/09 00:16:14;;;;;;;0.50;0.50;;;;;;;7.73;80.77;94866.81;6294139;28;20143;-67
2023/10/09 00:19:31;;;;;;;0.40;0.40;;;;;;;7.65;80.84;94854.41;6295040;28;20095;-66
2023/10/09 00:22:38;;;;;;;0.40;0.38;;;;;;;7.56;82.09;94861.25;6294802;28;20068;-66
2023/10/09 00:25:46;;;;;;;0.47;0.47;;;;;;;7.56;82.29;94845.53;6277002;28;20051;-66
2023/10/09 00:28:51;;;;;;;0.30;0.30;;;;;;;7.57;82.60;94852.41;6294900;28;20040;-66
2023/10/09 00:32:03;;;;;;;0.90;0.45;;;;;;;7.56;82.97;94835.06;6294514;28;20046;-65
2023/10/09 00:38:33;;;;;;;0.93;0.43;;;;;;;7.55;83.41;94837.81;6293920;28;20439;-66
2023/10/09 00:41:42;;;;;;;0.40;0.40;;;;;;;7.56;83.54;94855.19;6259839;28;20132;-66
2023/10/09 00:44:48;;;;;;;0.45;0.40;;;;;;;7.59;82.76;94837.44;6293947;28;20432;-66
2023/10/09 00:47:56;;;;;;;0.35;0.35;;;;;;;7.55;83.40;94838.63;6293413;28;20081;-66
2023/10/09 00:51:12;;;;;;;0.60;0.50;;;;;;;7.71;82.50;94842.56;6294344;28;20045;-66
2023/10/09 00:54:19;;;;;;;0.70;0.68;;;;;;;7.65;82.45;94831.66;6293513;28;20044;-67
2023/10/09 00:57:24;;;;;;;;;;;;;;;7.52;82.70;94822.38;6292740;28;20221;-66
2023/10/09 01:00:45;;;;;;;1.00;0.50;;;;;;;7.50;83.47;94829.50;6294083;28;19943;-66
2023/10/09 01:03:51;;;;;;;0.68;0.65;;;;;;;7.50;83.63;94827.75;6293613;28;20044;-66
2023/10/09 01:07:38;;;;;;;1.15;0.75;;;;;;;7.44;84.34;94820.41;6293613;28;20052;-67
2023/10/09 01:10:18;;;;;;;0.70;0.50;;;;;;;7.47;84.25;94835.84;6279163;28;20068;-67
2023/10/09 01:13:39;;;;;;;0.95;0.60;;;;;;;7.50;84.26;94817.28;6294127;28;20127;-67
2023/10/09 01:16:47;;;;;;;1.17;0.57;;;;;;;7.58;83.97;94842.78;6275491;28;20419;-66
2023/10/09 01:19:55;;;;;;;2.15;0.65;;;;;;;7.53;84.03;94829.25;6276234;28;20041;-66
2023/10/09 01:22:56;;;;;;;2.05;0.60;;;;;;;7.52;84.55;94838.91;6293167;28;20143;-67
2023/10/09 01:26:00;;;;;;;1.50;0.55;;;;;;;7.52;84.79;94833.66;6293404;28;20040;-66
2023/10/09 01:29:04;;;;;;;0.60;0.60;;;;;;;7.51;85.09;94831.19;6293672;28;20044;-66
2023/10/09 01:32:16;;;;;;;1.65;0.80;;;;;;;7.55;84.93;94841.25;6293934;28;20041;-67
2023/10/09 01:35:21;;;;;;;0.50;0.50;;;;;;;7.62;84.89;94831.94;6258588;28;20076;-67
2023/10/09 01:38:30;;;;;;;0.88;0.70;;;;;;;7.69;84.60;94828.78;6275577;28;20190;-65
2023/10/09 01:41:46;;;;;;;1.02;0.70;;;;;;;7.64;84.52;94843.09;6294094;28;20503;-66
2023/10/09 01:44:51;;;;;;;0.85;0.60;;;;;;;7.77;83.95;94844.66;6277818;28;20644;-66
2023/10/09 01:47:56;;;;;;;0.60;0.53;;;;;;;7.67;84.18;94846.38;6293266;28;20048;-66
2023/10/09 01:51:00;;;;;;;1.67;0.40;;;;;;;7.65;84.66;94854.41;6275817;28;20048;-66
2023/10/09 01:54:04;;;;;;;0.60;0.60;;;;;;;7.69;85.08;94850.53;6293577;28;20051;-67
2023/10/09 01:57:15;;;;;;;1.20;1.10;;;;;;;7.70;85.52;94851.38;6292609;28;20052;-67
2023/10/09 02:00:23;;;;;;;2.15;1.42;;;;;;;7.73;85.45;94853.72;6293655;28;20036;-66
2023/10/09 02:03:29;;;;;;;4.20;2.78;;;;;;;7.71;85.46;94853.03;6293293;28;20424;-66
2023/10/09 02:06:36;;;;;;;1.55;0.90;;;;;;;7.72;85.56;94865.16;6275649;28;20471;-66
2023/10/09 02:09:46;;;;;;;0.52;0.52;;;;;;;7.70;85.62;94867.06;6295863;28;20044;-66
2023/10/09 02:12:59;;;;;;;0.70;0.70;;;;;;;7.68;85.62;94858.53;6298047;28;20040;-66
2023/10/09 02:16:16;;;;;;;1.33;0.68;;;;;;;7.56;85.25;94861.25;6297606;28;20053;-66
2023/10/09 02:19:33;;;;;;;0.38;0.38;;;;;;;7.46;85.57;94870.81;6296579;28;20049;-66
2023/10/09 02:22:39;;;;;;;0.45;0.40;;;;;;;7.42;85.57;94864.19;6297583;28;20047;-66
2023/10/09 02:25:43;;;;;;;0.40;0.20;;;;;;;7.42;85.12;94869.44;6297566;28;20693;-67
2023/10/09 02:28:58;;;;;;;0.20;0.20;;;;;;;7.33;85.32;94863.19;6296777;28;20511;-66
2023/10/09 02:32:13;;;;;;;0.20;0.20;;;;;;;7.26;85.31;94876.91;6296233;28;20048;-67
2023/10/09 02:35:36;;;;;;;0.40;0.30;;;;;;;7.25;85.28;94873.47;6296242;28;20044;-68
2023/10/09 02:38:43;;;;;;;0.85;0.60;;;;;;;7.18;84.91;94883.59;6297035;28;20535;-66
2023/10/09 02:41:50;;;;;;;0.70;0.30;;;;;;;7.12;84.68;94884.09;6297068;28;20508;-66
2023/10/09 02:44:58;;;;;;;1.38;0.40;;;;;;;7.01;84.64;94892.00;6296620;28;20048;-66
2023/10/09 02:48:10;;;;;;;1.45;0.80;;;;;;;6.96;84.73;94915.09;6296968;28;20040;-66
2023/10/09 02:51:30;;;;;;;0.30;0.30;;;;;;;7.03;84.16;94905.78;6296733;28;20060;-66
2023/10/09 02:54:35;;;;;;;0.25;0.25;;;;;;;6.85;84.55;94891.59;6296333;28;20043;-65
2023/10/09 02:57:37;;;;;;;0.57;0.30;;;;;;;6.90;84.69;94892.88;6278229;28;20088;-66
2023/10/09 03:00:38;;;;;;;0.43;0.43;;;;;;;6.88;84.05;94901.81;6295769;28;20055;-66
2023/10/09 03:03:47;;;;;;;0.85;0.40;;;;;;;6.93;83.03;94912.72;6295604;28;20047;-67
2023/10/09 03:06:53;;;;;;;0.63;0.40;;;;;;;6.90;81.96;94905.13;6295359;28;20409;-67
2023/10/09 03:09:56;;;;;;;1.15;0.40;;;;;;;6.88;81.88;94915.72;6295766;28;20049;-67
2023/10/09 03:13:01;;;;;;;1.02;0.50;;;;;;;6.92;81.19;94919.75;6277314;28;20048;-68
2023/10/09 03:16:09;;;;;;;0.52;0.30;;;;;;;6.91;81.26;94925.13;6279565;28;20048;-67
2023/10/09 03:19:13;;;;;;;0.20;0.20;;;;;;;6.95;80.15;94913.44;6295312;28;20057;-67
2023/10/09 03:22:15;;;;;;;1.38;0.20;;;;;;;6.89;79.54;94899.06;6276549;28;20101;-67
2023/10/09 03:25:17;;;;;;;0.38;0.22;;;;;;;6.90;79.81;94926.03;6295862;28;20056;-67
2023/10/09 03:28:21;;;;;;;0.40;0.40;;;;;;;6.86;79.88;94914.19;6295659;28;20048;-67
2023/10/09 03:31:25;;;;;;;2.30;0.50;;;;;;;6.91;79.66;94918.09;6296145;28;20052;-68
2023/10/09 03:34:27;;;;;;;1.20;0.50;;;;;;;6.90;79.43;94923.44;6295394;28;20079;-67
2023/10/09 03:37:35;;;;;;;0.63;0.40;;;;;;;6.83;79.29;94924.91;6294564;28;20129;-68
2023/10/09 03:40:47;;;;;;;0.80;0.40;;;;;;;6.71;79.64;94926.72;6294791;28;20045;-67
2023/10/09 03:43:50;;;;;;;0.40;0.40;;;;;;;6.73;79.28;94938.69;6295783;28;20139;-67
2023/10/09 03:46:55;;;;;;;0.73;0.60;;;;;;;6.67;79.54;94954.88;6294655;28;20519;-68
2023/10/09 03:50:05;;;;;;;3.47;1.85;;;;;;;6.68;79.29;94948.72;6277354;28;20126;-68
2023/10/09 03:53:12;;;;;;;1.33;0.60;;;;;;;6.57;80.02;94950.50;6240110;28;20052;-68
2023/10/09 03:56:17;;;;;;;1.42;0.60;;;;;;;6.64;79.87;94942.03;6269584;28;20045;-67
2023/10/09 03:59:31;;;;;;;1.50;0.73;;;;;;;6.67;80.21;94944.41;6270545;28;20040;-68
2023/10/09 04:02:32;;;;;;;1.40;0.63;;;;;;;6.74;79.74;94932.53;6270495;28;20077;-67
2023/10/09 04:05:42;;;;;;;0.75;0.70;;;;;;;6.66;80.51;94934.94;6270520;28;20090;-68
2023/10/09 04:08:49;;;;;;;0.57;0.40;;;;;;;6.77;80.16;94943.69;6269308;28;20048;-68
2023/10/09 04:15:15;;;;;;;0.80;0.50;;;;;;;6.81;79.35;94948.53;6270211;28;20041;-68
2023/10/09 04:18:32;;;;;;;0.47;0.40;;;;;;;6.84;79.11;94953.50;6251547;28;20427;-67
2023/10/09 04:21:37;;;;;;;1.23;0.50;;;;;;;6.84;79.30;94968.38;6251996;28;20041;-68
2023/10/09 04:24:41;;;;;;;0.35;0.30;;;;;;;7.03;78.08;94963.31;6269029;28;20239;-67
2023/10/09 04:27:46;;;;;;;0.63;0.60;;;;;;;6.99;78.73;94972.34;6269911;28;20044;-68
2023/10/09 04:30:56;;;;;;;0.30;0.30;;;;;;;7.02;78.70;94982.59;6269406;28;20048;-68
2023/10/09 04:37:36;;;;;;;1.05;0.45;;;;;;;7.04;78.31;94985.91;6269655;28;20044;-68
2023/10/09 04:40:51;;;;;;;0.82;0.50;;;;;;;7.24;77.69;94983.44;6269787;28;20036;-68
2023/10/09 04:44:18;;;;;;;0.60;0.60;;;;;;;7.38;77.19;94999.66;6269550;28;20037;-68
2023/10/09 04:47:19;;;;;;;0.47;0.47;;;;;;;7.48;77.40;94997.13;6269327;28;20045;-68
2023/10/09 04:53:28;;;;;;;0.98;0.40;;;;;;;7.95;75.61;95012.44;6292653;28;20289;-67
2023/10/09 04:56:32;;;;;;;0.65;0.45;;;;;;;8.10;75.13;95014.63;6293258;28;20052;-68
2023/10/09 04:59:46;;;;;;;1.10;0.35;;;;;;;8.32;74.29;95031.13;6293367;28;20048;-67
2023/10/09 05:03:56;;;;;;;;;;;;;;;8.56;74.26;95035.28;6293755;28;20163;-67
2023/10/09 05:09:55;;;;;;;0.80;0.50;;;;;;;8.74;72.12;95036.28;6293547;28;20419;-67
2023/10/09 05:13:02;;;;;;;0.82;0.40;;;;;;;8.75;71.97;95048.44;6294036;28;20067;-68
2023/10/09 05:16:19;;;;;;;0.35;0.32;;;;;;;8.70;71.46;95059.31;6293807;28;20044;-68
2023/10/09 05:19:33;;;;;;;0.47;0.30;;;;;;;8.77;71.37;95065.72;6292633;28;20055;-68
2023/10/09 05:22:37;;;;;;;0.30;0.30;;;;;;;8.75;71.45;95074.69;6293835;28;20404;-68
2023/10/09 05:25:55;;;;;;;0.50;0.40;;;;;;;8.83;70.68;95076.63;6275650;28;20051;-67
2023/10/09 05:28:58;;;;;;;0.40;0.40;;;;;;;8.95;71.14;95071.16;6292984;28;20522;-67
2023/10/09 05:35:20;;;;;;;0.60;0.60;;;;;;;9.77;66.44;95077.06;6293671;28;20041;-68
2023/10/09 05:38:25;;;;;;;1.48;0.70;;;;;;;9.82;64.28;95080.94;6293560;28;20045;-66
2023/10/09 05:41:52;;;;;;;0.65;0.60;;;;;;;9.72;64.62;95098.50;6292194;28;20055;-66
2023/10/09 05:46:02;;;;;;;0.70;0.50;;;;;;;9.55;64.68;95099.16;6297209;28;20048;-67
2023/10/09 05:51:42;;;;;;;;;;;;;;;10.13;62.52;95104.41;6298830;28;20139;-66
2023/10/09 05:55:20;;;;;;;0.30;0.20;;;;;;;10.33;61.49;95100.84;6297723;28;20009;-67
2023/10/09 06:04:54;;;;;;;0.88;0.10;;;;;;;11.61;54.63;95118.56;6297656;28;20087;-66
2023/10/09 06:08:06;;;;;;;0.93;0.60;;;;;;;11.17;55.22;95120.19;6298125;28;20056;-66
2023/10/09 06:17:50;;;;;;;0.20;0.10;;;;;;;12.41;53.16;95116.00;6297972;28;20048;-67
2023/10/09 06:24:33;;;;;;;0.10;0.10;;;;;;;12.67;50.66;95131.03;6210670;28;20056;-66
2023/10/09 06:30:46;;;;;;;;;;;;;;;12.43;52.04;95145.72;6298470;28;20041;-67
2023/10/09 06:34:16;;;;;;;0.52;0.20;;;;;;;12.05;52.30;95155.59;6297050;28;19920;-67
2023/10/09 06:43:54;;;;;;;1.10;0.35;;;;;;;11.24;55.07;95163.41;6259326;28;20048;-66
2023/10/09 06:47:07;;;;;;;0.25;0.25;;;;;;;10.91;55.65;95173.50;6297312;28;20036;-66
2023/10/09 06:53:58;;;;;;;0.20;0.20;;;;;;;10.72;54.87;95171.72;6297060;28;20094;-67
2023/10/09 07:00:54;;;;;;;0.55;0.50;;;;;;;10.51;53.32;95192.13;6296941;28;20049;-66
2023/10/09 07:03:51;;;;;;;0.90;0.40;;;;;;;10.36;53.91;95193.50;6295638;28;20048;-66
2023/10/09 07:06:56;;;;;;;0.85;0.57;;;;;;;10.40;52.89;95195.75;6295834;28;20051;-67
2023/10/09 07:13:24;;;;;;;1.85;0.82;;;;;;;10.49;53.56;95199.31;6296352;28;20498;-66
2023/10/09 07:16:38;;;;;;;0.70;0.45;;;;;;;10.51;53.17;95200.03;6296718;28;20052;-67
2023/10/09 07:22:52;;;;;;;1.58;0.40;;;;;;;10.58;53.89;95206.38;6295906;28;20128;-67
2023/10/09 07:26:18;;;;;;;0.40;0.35;;;;;;;10.69;53.70;95211.47;6296727;28;20037;-66
2023/10/09 07:29:23;;;;;;;0.80;0.57;;;;;;;10.77;54.03;95214.25;6295630;28;20511;-66
2023/10/09 07:32:32;;;;;;;1.67;0.80;;;;;;;10.96;53.70;95223.91;6296383;28;20052;-66
2023/10/09 07:38:55;;;;;;;1.20;0.55;;;;;;;11.21;52.93;95222.44;6295886;28;20044;-67
2023/10/09 07:42:15;;;;;;;0.70;0.70;;;;;;;11.19;52.30;95219.13;6295974;28;20044;-67
2023/10/09 07:48:38;;;;;;;0.55;0.47;;;;;;;11.45;51.98;95244.81;6296066;28;20522;-66
2023/10/09 07:51:46;;;;;;;0.70;0.50;;;;;;;12.02;50.81;95252.59;6295415;28;20074;-67
2023/10/09 07:54:52;;;;;;;0.50;0.40;;;;;;;12.18;50.46;95251.97;6294950;28;20075;-67
2023/10/09 07:57:56;;;;;;;2.47;0.50;;;;;;;12.26;50.11;95260.78;6294986;28;20230;-67
2023/10/09 08:01:15;;;;;;;2.20;0.73;;;;;;;12.23;50.38;95265.50;6295584;28;20503;-67
2023/10/09 08:04:37;;;;;;;2.88;1.00;;;;;;;11.95;50.13;95277.91;6295473;28;20081;-67
2023/10/09 08:07:54;;;;;;;1.33;0.57;;;;;;;11.03;51.76;95276.78;6277562;28;20070;-67
2023/10/09 08:17:37;;;;;;;0.88;0.80;;;;;;;9.17;56.49;95294.91;6276905;28;20060;-67
2023/10/09 08:24:04;;;;;;;0.50;0.40;;;;;;;8.65;58.10;95315.84;6294161;28;20495;-67
2023/10/09 08:30:50;;;;;;;1.08;0.70;;;;;;;8.38;55.73;95334.63;6241917;28;20053;-67
2023/10/09 08:33:58;;;;;;;0.50;0.40;;;;;;;8.35;54.79;95337.50;6241670;28;20049;-67
2023/10/09 08:37:06;;;;;;;1.60;0.60;;;;;;;8.33;55.52;95329.75;6294233;28;20048;-66
2023/10/09 08:40:13;;;;;;;1.40;0.70;;;;;;;8.43;55.64;95334.28;6294720;28;20044;-67
2023/10/09 08:43:22;;;;;;;0.98;0.63;;;;;;;8.61;55.29;95316.22;6294614;28;20044;-67
2023/10/09 08:46:27;;;;;;;0.68;0.50;;;;;;;8.82;53.35;95317.06;6294364;28;20044;-68
2023/10/09 08:49:33;;;;;;;0.93;0.63;;;;;;;8.74;52.25;95329.97;6294215;28;20054;-67
2023/10/09 08:52:35;;;;;;;0.70;0.50;;;;;;;8.68;51.09;95340.97;6293633;28;20044;-67
2023/10/09 08:55:41;;;;;;;0.80;0.40;;;;;;;8.44;51.33;95336.78;6294259;28;20043;-68
2023/10/09 08:58:43;;;;;;;0.47;0.40;;;;;;;8.21;51.62;95348.22;6293923;28;20052;-66
2023/10/09 09:01:49;;;;;;;0.88;0.55;;;;;;;8.00;52.20;95356.84;6293607;28;20109;-67
2023/10/09 09:04:53;;;;;;;0.30;0.30;;;;;;;7.88;52.80;95342.94;6294172;28;20852;-67
2023/10/09 09:07:59;;;;;;;0.40;0.40;;;;;;;7.89;53.02;95328.03;6293265;28;20562;-66
2023/10/09 09:11:11;;;;;;;0.40;0.40;;;;;;;7.90;52.82;95295.69;6293009;28;20048;-68
2023/10/09 09:14:19;;;;;;;2.30;0.60;;;;;;;8.04;52.90;95290.19;6294111;28;20041;-67
2023/10/09 09:17:32;;;;;;;1.13;0.70;;;;;;;8.13;52.84;95319.22;6292969;28;20052;-67
2023/10/09 09:20:53;;;;;;;1.58;0.90;;;;;;;8.19;52.96;95318.72;6275026;28;20044;-66
2023/10/09 09:24:15;;;;;;;1.25;0.85;;;;;;;8.43;52.08;95303.66;6293990;28;20071;-66
2023/10/09 09:27:20;;;;;;;1.15;0.70;;;;;;;8.54;50.99;95329.81;6293395;28;20107;-66
2023/10/09 09:30:33;;;;;;;1.70;0.60;;;;;;;8.46;50.26;95320.91;6293583;28;20040;-67
2023/10/09 09:33:40;;;;;;;3.00;1.33;;;;;;;8.32;49.48;95325.47;6275094;28;20686;-67
2023/10/09 09:36:53;;;;;;;2.03;0.88;;;;;;;8.38;49.56;95329.38;6274662;28;20431;-67
2023/10/09 09:43:30;;;;;;;1.80;1.20;;;;;;;8.85;47.38;95329.94;6292784;28;20048;-66
2023/10/09 09:46:33;;;;;;;2.65;1.35;;;;;;;8.75;47.45;95337.75;6274760;28;20059;-67
2023/10/09 09:49:38;;;;;;;1.25;0.90;;;;;;;8.81;46.79;95354.75;6292025;28;20061;-67
2023/10/09 09:52:46;;;;;;;1.30;0.70;;;;;;;8.75;46.97;95365.75;6293274;28;20060;-67
2023/10/09 09:55:59;;;;;;;1.15;0.60;;;;;;;8.59;47.16;95374.03;6293155;28;20120;-67
2023/10/09 09:59:13;;;;;;;2.47;0.63;;;;;;;8.42;47.39;95372.75;6293082;28;20067;-67
2023/10/09 10:02:20;;;;;;;1.88;0.90;;;;;;;8.46;47.10;95362.84;6291514;28;20605;-67
2023/10/09 10:05:22;;;;;;;1.45;0.70;;;;;;;8.58;45.60;95350.53;6292424;28;20047;-66
2023/10/09 10:08:32;;;;;;;1.88;0.70;;;;;;;8.61;45.16;95347.69;6292153;28;20431;-67
2023/10/09 10:11:51;;;;;;;2.47;0.70;;;;;;;8.58;44.67;95342.66;6292052;28;20048;-68
2023/10/09 10:15:06;;;;;;;1.98;0.60;;;;;;;8.49;44.78;95337.25;6292463;28;20400;-68
2023/10/09 10:18:10;;;;;;;1.10;0.47;;;;;;;8.33;44.36;95331.53;6292378;28;20064;-67
2023/10/09 10:21:15;;;;;;;1.08;0.52;;;;;;;8.19;44.69;95342.28;6292426;28;20044;-67
2023/10/09 10:24:30;;;;;;;1.08;0.60;;;;;;;8.20;45.22;95341.34;6292338;28;20059;-67
2023/10/09 10:27:44;;;;;;;2.67;0.70;;;;;;;8.17;44.61;95337.16;6275211;28;20036;-67
2023/10/09 10:30:46;;;;;;;2.80;1.10;;;;;;;7.93;45.28;95370.56;6294527;28;20466;-67
2023/10/09 10:33:54;;;;;;;1.33;0.60;;;;;;;7.82;45.34;95353.88;6296024;28;20045;-67
2023/10/09 10:36:58;;;;;;;1.60;0.80;;;;;;;7.58;45.83;95367.06;6297232;28;20044;-67
2023/10/09 10:40:13;;;;;;;1.77;0.90;;;;;;;7.51;46.44;95365.06;6297088;28;20036;-67
2023/10/09 10:46:51;;;;;;;1.85;0.85;;;;;;;7.32;48.30;95355.16;6296993;28;20159;-66
2023/10/09 10:49:58;;;;;;;;;;;;;;;7.40;48.79;95355.41;6297188;28;20047;-66
2023/10/09 10:53:18;;;;;;;1.10;0.55;;;;;;;7.40;48.54;95353.63;6297005;28;20128;-67
2023/10/09 10:56:34;;;;;;;1.48;0.65;;;;;;;7.38;49.00;95378.25;6296750;28;20194;-67
2023/10/09 10:59:42;;;;;;;0.40;0.30;;;;;;;7.24;49.67;95371.44;6295968;28;20045;-67
2023/10/09 11:02:52;;;;;;;2.55;1.10;;;;;;;7.03;50.98;95381.75;6296745;28;20048;-67
2023/10/09 11:05:55;;;;;;;4.55;0.95;;;;;;;7.05;51.73;95390.31;6296306;28;20055;-66
2023/10/09 11:09:09;;;;;;;2.45;0.73;;;;;;;6.91;51.57;95387.91;6296613;28;20044;-66
2023/10/09 11:12:21;;;;;;;3.70;1.42;;;;;;;6.68;52.78;95398.25;6296355;28;20038;-67
2023/10/09 11:19:31;;;;;;;3.10;0.80;;;;;;;6.72;53.77;95389.22;6173799;28;20050;-67
2023/10/09 11:22:39;;;;;;;2.20;1.10;;;;;;;6.48;54.78;95393.63;6296197;28;20064;-67
2023/10/09 11:25:52;;;;;;;2.08;1.27;;;;;;;6.49;54.97;95392.69;6296135;28;20550;-66
2023/10/09 11:32:35;;;;;;;1.88;1.30;;;;;;;6.59;55.06;95411.97;6295828;28;20086;-67
2023/10/09 11:35:41;;;;;;;1.55;0.98;;;;;;;6.50;55.75;95420.47;6295557;28;20064;-68
2023/10/09 11:38:45;;;;;;;2.13;1.58;;;;;;;6.49;56.43;95429.28;6295218;28;20060;-67
2023/10/09 11:41:49;;;;;;;2.33;1.23;;;;;;;6.51;56.34;95428.22;6294334;28;20044;-67
2023/10/09 11:44:55;;;;;;;1.58;0.80;;;;;;;6.59;55.82;95435.50;6295048;28;20044;-67
2023/10/09 11:48:20;;;;;;;1.03;0.63;;;;;;;6.53;56.08;95435.94;6295226;28;20043;-67
2023/10/09 11:51:25;;;;;;;4.53;1.15;;;;;;;6.37;56.19;95440.59;6295179;28;20439;-68
2023/10/09 11:54:31;;;;;;;2.17;1.33;;;;;;;6.41;56.53;95431.59;6294496;28;20140;-67
2023/10/09 11:57:35;;;;;;;1.77;1.15;;;;;;;6.25;56.77;95417.00;6295180;28;20049;-68
2023/10/09 12:00:46;;;;;;;3.10;1.65;;;;;;;6.38;57.00;95447.50;6294071;28;20048;-67
2023/10/09 12:03:50;;;;;;;1.75;1.20;;;;;;;6.38;56.59;95450.13;6294997;28;20491;-68
2023/10/09 12:07:06;;;;;;;1.88;1.15;;;;;;;6.22;57.27;95432.88;6277423;28;20040;-69
2023/10/09 12:10:10;;;;;;;2.08;1.20;;;;;;;6.18;56.83;95426.22;6276584;28;20044;-67
2023/10/09 12:13:11;;;;;;;3.33;1.55;;;;;;;6.18;57.13;95431.44;6294475;28;20048;-67
2023/10/09 12:16:18;;;;;;;4.55;1.20;;;;;;;6.12;57.35;95434.50;6294738;28;20067;-67
2023/10/09 12:19:21;;;;;;;3.05;1.58;;;;;;;6.19;57.19;95454.00;6293995;28;20423;-67
2023/10/09 12:22:26;;;;;;;6.03;1.33;;;;;;;6.24;57.40;95456.31;6293626;28;20059;-67
2023/10/09 12:25:31;;;;;;;4.05;1.20;;;;;;;6.09;58.28;95458.22;6294140;28;20407;-67
2023/10/09 12:28:38;;;;;;;2.20;1.10;;;;;;;5.92;59.14;95453.31;6293819;28;20063;-68
2023/10/09 12:31:39;;;;;;;0.90;0.43;;;;;;;6.09;58.86;95466.06;6293805;28;20045;-68
2023/10/09 12:34:50;;;;;;;2.85;0.88;;;;;;;5.99;59.65;95462.41;6293651;28;20131;-67
2023/10/09 12:37:58;;;;;;;1.45;0.52;;;;;;;5.77;60.65;95453.38;6293404;28;20059;-68
2023/10/09 12:41:08;;;;;;;1.00;0.65;;;;;;;5.88;60.81;95437.00;6293525;28;20214;-67
2023/10/09 12:44:18;;;;;;;2.05;0.90;;;;;;;5.73;61.30;95451.94;6293308;28;20040;-67
2023/10/09 12:47:22;;;;;;;2.25;0.80;;;;;;;5.65;61.58;95443.78;6293184;28;20040;-68
2023/10/09 12:50:35;;;;;;;2.20;1.10;;;;;;;5.60;62.12;95440.66;6294340;28;20491;-67
2023/10/09 12:53:41;;;;;;;2.10;0.65;;;;;;;5.56;62.57;95475.75;6293533;28;20539;-67
2023/10/09 12:56:48;;;;;;;1.17;0.40;;;;;;;5.45;62.58;95468.63;6292874;28;20051;-68
2023/10/09 12:59:55;;;;;;;1.60;0.60;;;;;;;5.46;62.86;95474.66;6293217;28;20400;-67
2023/10/09 13:03:13;;;;;;;1.90;0.75;;;;;;;5.35;62.83;95468.41;6293902;28;20455;-67
2023/10/09 13:06:23;;;;;;;4.15;0.68;;;;;;;5.33;63.08;95479.88;6292789;28;20049;-67
2023/10/09 13:09:33;;;;;;;2.33;0.93;;;;;;;5.32;63.17;95486.03;6292734;28;20071;-68
2023/10/09 13:12:40;;;;;;;3.78;1.00;;;;;;;5.02;63.36;95440.19;6275605;28;20052;-67
2023/10/09 13:15:46;;;;;;;0.55;0.43;;;;;;;5.23;63.59;95463.16;6293810;28;20072;-68
2023/10/09 13:18:51;;;;;;;2.25;0.77;;;;;;;5.03;63.75;95426.19;6292475;28;20044;-65
2023/10/09 13:21:55;;;;;;;2.00;0.95;;;;;;;5.08;63.80;95425.91;6293420;28;20048;-68
2023/10/09 13:25:03;;;;;;;2.63;1.00;;;;;;;4.98;64.15;95433.47;6293067;28;20489;-67
2023/10/09 13:28:05;;;;;;;3.05;1.90;;;;;;;4.95;64.45;95426.72;6292878;28;20057;-67
2023/10/09 13:31:13;;;;;;;2.17;1.60;;;;;;;4.97;64.64;95425.78;6293070;28;20055;-66
2023/10/09 13:34:18;;;;;;;3.03;1.42;;;;;;;4.89;64.54;95423.66;6293682;28;20059;-66
2023/10/09 13:37:22;;;;;;;1.73;1.00;;;;;;;5.00;64.53;95438.63;6292645;28;20068;-66
2023/10/09 13:40:27;;;;;;;1.42;0.95;;;;;;;4.85;64.86;95453.50;6292728;28;20498;-67
2023/10/09 13:43:28;;;;;;;2.03;1.08;;;;;;;4.92;64.89;95455.56;6292723;28;20136;-67
2023/10/09 13:46:41;;;;;;;2.30;0.95;;;;;;;4.84;65.09;95473.50;6293492;28;20045;-66
2023/10/09 13:49:45;;;;;;;1.42;1.00;;;;;;;4.94;65.17;95471.97;6275216;28;20059;-67
2023/10/09 13:52:54;;;;;;;2.00;0.75;;;;;;;5.01;65.07;95489.81;6292019;28;20044;-67
2023/10/09 13:55:58;;;;;;;2.15;1.00;;;;;;;5.00;64.91;95488.16;6274693;28;20148;-67
2023/10/09 13:59:10;;;;;;;1.50;1.00;;;;;;;4.90;65.40;95473.09;6293469;28;20476;-66
2023/10/09 14:02:17;;;;;;;1.08;0.88;;;;;;;4.98;65.34;95484.78;6293006;28;20067;-67
2023/10/09 14:05:21;;;;;;;1.25;0.90;;;;;;;4.86;65.85;95523.75;6294947;28;20055;-67
2023/10/09 14:08:30;;;;;;;1.25;0.82;;;;;;;4.94;66.22;95518.88;6298705;28;20315;-66
2023/10/09 14:11:39;;;;;;;3.53;1.13;;;;;;;4.90;66.49;95530.44;6297603;28;20040;-66
2023/10/09 14:14:48;;;;;;;1.15;1.00;;;;;;;4.72;67.19;95521.19;6297267;28;20052;-68
2023/10/09 14:17:55;;;;;;;1.05;0.93;;;;;;;4.80;67.18;95521.53;6297547;28;20061;-67
2023/10/09 14:21:15;;;;;;;1.08;0.90;;;;;;;4.79;67.52;95530.28;6297813;28;20048;-67
2023/10/09 14:24:26;;;;;;;1.05;0.95;;;;;;;4.85;67.23;95569.00;6297829;28;20543;-67
2023/10/09 14:27:35;;;;;;;1.60;1.38;;;;;;;4.92;67.01;95546.81;6297432;28;20049;-68
2023/10/09 14:30:43;;;;;;;3.42;1.17;;;;;;;4.80;67.46;95555.41;6297690;28;20129;-67
2023/10/09 14:33:53;;;;;;;2.30;1.23;;;;;;;4.81;67.56;95538.88;6297617;28;20114;-67
2023/10/09 14:37:00;;;;;;;1.58;0.75;;;;;;;4.88;67.09;95550.56;6297583;28;20051;-67
2023/10/09 14:40:12;;;;;;;1.80;1.27;;;;;;;4.66;67.87;95532.00;6297407;28;20431;-67
2023/10/09 14:43:20;;;;;;;3.72;1.30;;;;;;;4.82;67.64;95550.13;6297518;28;20060;-67
2023/10/09 14:46:28;;;;;;;3.70;1.52;;;;;;;4.71;67.85;95553.38;6297208;28;20131;-68
2023/10/09 14:49:37;;;;;;;1.13;0.80;;;;;;;4.76;67.77;95568.75;6296513;28;20052;-68
2023/10/09 14:52:41;;;;;;;1.55;1.45;;;;;;;4.77;67.59;95560.81;6296219;28;20055;-67
2023/10/09 14:55:45;;;;;;;2.90;1.33;;;;;;;4.81;67.63;95562.31;6296544;28;20151;-67
2023/10/09 14:58:46;;;;;;;1.48;1.10;;;;;;;4.83;67.60;95555.22;6296217;28;20056;-68
2023/10/09 15:01:53;;;;;;;1.23;1.13;;;;;;;4.66;68.36;95529.38;6296845;28;20055;-68
2023/10/09 15:04:54;;;;;;;;;;;;;;;4.52;68.00;95513.78;6296040;28;20044;-66
2023/10/09 15:07:58;;;;;;;2.50;1.60;;;;;;;4.65;68.19;95540.75;6296622;28;19920;-68
2023/10/09 15:11:02;;;;;;;2.55;1.73;;;;;;;4.56;68.83;95541.31;6296941;28;20033;-69
2023/10/09 15:14:10;;;;;;;2.88;1.70;;;;;;;4.67;68.52;95549.28;6296568;28;20052;-68
2023/10/09 15:17:16;;;;;;;2.63;1.30;;;;;;;4.64;68.69;95560.75;6295208;28;20040;-66
2023/10/09 15:20:22;;;;;;;1.00;0.90;;;;;;;4.70;68.73;95559.53;6278307;28;20044;-66
2023/10/09 15:23:27;;;;;;;2.47;1.63;;;;;;;4.58;68.88;95555.06;6296552;28;20044;-67
2023/10/09 15:26:33;;;;;;;2.97;2.03;;;;;;;4.52;69.55;95576.31;6296185;28;20040;-67
2023/10/09 15:29:44;;;;;;;4.43;1.52;;;;;;;4.56;69.49;95585.59;6296381;28;20491;-67
2023/10/09 15:32:49;;;;;;;2.58;2.10;;;;;;;4.46;70.03;95565.31;6296531;28;20037;-68
2023/10/09 15:35:53;;;;;;;1.98;1.60;;;;;;;4.47;70.10;95571.38;6294936;28;20052;-68
2023/10/09 15:38:59;;;;;;;3.63;2.05;;;;;;;4.48;70.68;95562.63;6277222;28;20098;-67
2023/10/09 15:42:04;;;;;;;2.58;1.90;;;;;;;4.53;70.17;95560.59;6295594;28;20051;-67
2023/10/09 15:45:06;;;;;;;1.92;1.50;;;;;;;4.49;70.49;95559.09;6294828;28;20415;-68
2023/10/09 15:48:11;;;;;;;2.00;1.52;;;;;;;4.54;70.49;95566.63;6295738;28;20036;-68
2023/10/09 15:51:15;;;;;;;4.45;1.80;;;;;;;4.54;70.75;95561.41;6295725;28;20052;-67
2023/10/09 15:54:19;;;;;;;1.17;1.05;;;;;;;4.45;71.00;95550.63;6295140;28;20052;-68
2023/10/09 15:57:21;;;;;;;3.30;1.70;;;;;;;4.52;71.36;95555.47;6295104;28;20062;-68
2023/10/09 16:00:28;;;;;;;3.33;1.75;;;;;;;4.40;71.60;95570.91;6295577;28;20137;-67
2023/10/09 16:03:29;;;;;;;3.78;2.05;;;;;;;4.35;72.36;95583.38;6260254;28;20527;-68
2023/10/09 16:06:34;;;;;;;1.20;1.05;;;;;;;4.44;72.47;95580.19;6295486;28;20044;-67
2023/10/09 16:09:38;;;;;;;2.20;2.00;;;;;;;4.29;72.90;95560.31;6295292;28;20463;-67
2023/10/09 16:12:43;;;;;;;2.13;1.85;;;;;;;4.22;73.37;95554.66;6295170;28;20036;-68
2023/10/09 16:15:48;;;;;;;2.25;1.55;;;;;;;4.30;73.02;95563.75;6295274;28;20598;-67
2023/10/09 16:18:51;;;;;;;2.40;1.85;;;;;;;4.31;72.92;95535.03;6295117;28;20047;-67
2023/10/09 16:21:56;;;;;;;2.83;2.47;;;;;;;4.36;72.89;95540.78;6277214;28;20191;-67
2023/10/09 16:25:01;;;;;;;2.65;2.00;;;;;;;4.36;72.81;95560.75;6294610;28;20460;-68
2023/10/09 16:28:04;;;;;;;2.30;2.10;;;;;;;4.37;72.43;95558.09;6293834;28;20075;-67
2023/10/09 16:31:13;;;;;;;2.22;2.00;;;;;;;4.45;71.81;95558.44;6294149;28;20041;-67
2023/10/09 16:34:17;;;;;;;3.70;2.28;;;;;;;4.53;71.27;95558.00;6276397;28;20055;-67